sensor_id;sensor_type;location;lat;lon;timestamp;P1;durP1;ratioP1;P2;durP2;ratioP2
3259;SDS011;22469;48.150;14.004;2022-07-06T00:02:03;6.27;;;5.77;;
3259;SDS011;22469;48.150;14.004;2022-07-06T00:04:30;6.47;;;5.93;;
3259;SDS011;22469;48.150;14.004;2022-07-06T00:06:58;4.90;;;4.50;;
3259;SDS011;22469;48.150;14.004;2022-07-06T00:09:25;5.60;;;5.30;;
3259;SDS011;22469;48.150;14.004;2022-07-06T00:11:52;6.67;;;6.17;;
3259;SDS011;22469;48.150;14.004;2022-07-06T00:14:19;7.37;;;6.70;;
3259;SDS011;22469;48.150;14.004;2022-07-06T00:16:47;7.20;;;6.70;;
3259;SDS011;22469;48.150;14.004;2022-07-06T00:19:14;6.33;;;5.83;;
3259;SDS011;22469;48.150;14.004;2022-07-06T00:21:42;7.73;;;7.23;;
3259;SDS011;22469;48.150;14.004;2022-07-06T00:24:09;6.37;;;5.97;;
3259;SDS011;22469;48.150;14.004;2022-07-06T00:26:36;6.20;;;5.90;;
3259;SDS011;22469;48.150;14.004;2022-07-06T00:29:03;5.93;;;5.63;;
3259;SDS011;22469;48.150;14.004;2022-07-06T00:31:30;7.47;;;6.97;;
3259;SDS011;22469;48.150;14.004;2022-07-06T00:33:58;6.57;;;6.17;;
3259;SDS011;22469;48.150;14.004;2022-07-06T00:36:25;6.40;;;6.03;;
3259;SDS011;22469;48.150;14.004;2022-07-06T00:38:52;7.27;;;6.57;;
3259;SDS011;22469;48.150;14.004;2022-07-06T00:41:19;7.20;;;6.80;;
3259;SDS011;22469;48.150;14.004;2022-07-06T00:43:47;7.13;;;6.40;;
3259;SDS011;22469;48.150;14.004;2022-07-06T00:46:18;7.03;;;6.57;;
3259;SDS011;22469;48.150;14.004;2022-07-06T00:48:46;8.27;;;7.67;;
3259;SDS011;22469;48.150;14.004;2022-07-06T00:51:13;7.73;;;7.33;;
3259;SDS011;22469;48.150;14.004;2022-07-06T00:53:41;8.63;;;7.83;;
3259;SDS011;22469;48.150;14.004;2022-07-06T00:56:09;8.67;;;8.17;;
3259;SDS011;22469;48.150;14.004;2022-07-06T00:58:36;9.30;;;8.47;;
3259;SDS011;22469;48.150;14.004;2022-07-06T01:01:04;9.23;;;8.63;;
3259;SDS011;22469;48.150;14.004;2022-07-06T01:03:32;9.30;;;8.50;;
3259;SDS011;22469;48.150;14.004;2022-07-06T01:05:59;7.07;;;6.57;;
3259;SDS011;22469;48.150;14.004;2022-07-06T01:08:29;8.50;;;7.80;;
3259;SDS011;22469;48.150;14.004;2022-07-06T01:10:57;8.40;;;7.70;;
3259;SDS011;22469;48.150;14.004;2022-07-06T01:13:24;8.70;;;8.10;;
3259;SDS011;22469;48.150;14.004;2022-07-06T01:15:53;8.27;;;7.77;;
3259;SDS011;22469;48.150;14.004;2022-07-06T01:18:20;8.50;;;7.70;;
3259;SDS011;22469;48.150;14.004;2022-07-06T01:20:48;8.10;;;7.47;;
3259;SDS011;22469;48.150;14.004;2022-07-06T01:23:15;9.20;;;7.87;;
3259;SDS011;22469;48.150;14.004;2022-07-06T01:25:42;7.23;;;6.73;;
3259;SDS011;22469;48.150;14.004;2022-07-06T01:28:10;7.87;;;7.10;;
3259;SDS011;22469;48.150;14.004;2022-07-06T01:30:37;7.83;;;7.33;;
3259;SDS011;22469;48.150;14.004;2022-07-06T01:33:04;7.07;;;6.70;;
3259;SDS011;22469;48.150;14.004;2022-07-06T01:35:31;8.47;;;7.90;;
3259;SDS011;22469;48.150;14.004;2022-07-06T01:38:01;8.27;;;7.47;;
3259;SDS011;22469;48.150;14.004;2022-07-06T01:40:29;7.43;;;6.93;;
3259;SDS011;22469;48.150;14.004;2022-07-06T01:42:56;7.80;;;7.30;;
3259;SDS011;22469;48.150;14.004;2022-07-06T01:45:23;7.57;;;6.90;;
3259;SDS011;22469;48.150;14.004;2022-07-06T01:47:50;7.93;;;7.43;;
3259;SDS011;22469;48.150;14.004;2022-07-06T01:50:17;11.80;;;10.80;;
3259;SDS011;22469;48.150;14.004;2022-07-06T01:52:44;7.67;;;7.10;;
3259;SDS011;22469;48.150;14.004;2022-07-06T01:55:11;8.20;;;7.70;;
3259;SDS011;22469;48.150;14.004;2022-07-06T01:57:39;8.57;;;7.77;;
3259;SDS011;22469;48.150;14.004;2022-07-06T02:00:07;7.97;;;7.47;;
3259;SDS011;22469;48.150;14.004;2022-07-06T02:02:35;7.93;;;7.33;;
3259;SDS011;22469;48.150;14.004;2022-07-06T02:05:02;11.73;;;7.93;;
3259;SDS011;22469;48.150;14.004;2022-07-06T02:07:29;8.57;;;7.63;;
3259;SDS011;22469;48.150;14.004;2022-07-06T02:09:56;7.80;;;7.30;;
3259;SDS011;22469;48.150;14.004;2022-07-06T02:12:23;8.17;;;7.53;;
3259;SDS011;22469;48.150;14.004;2022-07-06T02:14:51;7.77;;;7.17;;
3259;SDS011;22469;48.150;14.004;2022-07-06T02:17:18;10.73;;;8.37;;
3259;SDS011;22469;48.150;14.004;2022-07-06T02:19:45;8.00;;;7.30;;
3259;SDS011;22469;48.150;14.004;2022-07-06T02:22:12;7.97;;;7.47;;
3259;SDS011;22469;48.150;14.004;2022-07-06T02:24:39;7.70;;;7.20;;
3259;SDS011;22469;48.150;14.004;2022-07-06T02:27:06;7.87;;;7.27;;
3259;SDS011;22469;48.150;14.004;2022-07-06T02:29:33;7.60;;;6.93;;
3259;SDS011;22469;48.150;14.004;2022-07-06T02:32:00;7.57;;;6.83;;
3259;SDS011;22469;48.150;14.004;2022-07-06T02:34:27;7.30;;;6.70;;
3259;SDS011;22469;48.150;14.004;2022-07-06T02:36:54;8.17;;;7.07;;
3259;SDS011;22469;48.150;14.004;2022-07-06T02:39:21;9.33;;;8.50;;
3259;SDS011;22469;48.150;14.004;2022-07-06T02:41:49;8.50;;;8.00;;
3259;SDS011;22469;48.150;14.004;2022-07-06T02:44:16;10.43;;;8.37;;
3259;SDS011;22469;48.150;14.004;2022-07-06T02:46:43;8.93;;;8.23;;
3259;SDS011;22469;48.150;14.004;2022-07-06T02:49:10;9.90;;;9.20;;
3259;SDS011;22469;48.150;14.004;2022-07-06T02:51:37;13.13;;;9.67;;
3259;SDS011;22469;48.150;14.004;2022-07-06T02:54:04;8.50;;;7.70;;
3259;SDS011;22469;48.150;14.004;2022-07-06T02:56:31;9.40;;;8.43;;
3259;SDS011;22469;48.150;14.004;2022-07-06T02:58:58;7.30;;;6.90;;
3259;SDS011;22469;48.150;14.004;2022-07-06T03:01:26;8.33;;;7.60;;
3259;SDS011;22469;48.150;14.004;2022-07-06T03:03:53;9.27;;;8.53;;
3259;SDS011;22469;48.150;14.004;2022-07-06T03:06:21;9.00;;;8.40;;
3259;SDS011;22469;48.150;14.004;2022-07-06T03:08:48;10.40;;;9.60;;
3259;SDS011;22469;48.150;14.004;2022-07-06T03:11:15;10.30;;;9.43;;
3259;SDS011;22469;48.150;14.004;2022-07-06T03:13:42;8.07;;;7.47;;
3259;SDS011;22469;48.150;14.004;2022-07-06T03:16:09;8.00;;;7.10;;
3259;SDS011;22469;48.150;14.004;2022-07-06T03:18:36;8.07;;;7.43;;
3259;SDS011;22469;48.150;14.004;2022-07-06T03:21:04;9.30;;;7.90;;
3259;SDS011;22469;48.150;14.004;2022-07-06T03:23:31;8.40;;;7.70;;
3259;SDS011;22469;48.150;14.004;2022-07-06T03:25:58;9.90;;;8.90;;
3259;SDS011;22469;48.150;14.004;2022-07-06T03:28:26;9.73;;;8.93;;
3259;SDS011;22469;48.150;14.004;2022-07-06T03:30:53;8.83;;;8.07;;
3259;SDS011;22469;48.150;14.004;2022-07-06T03:33:21;9.53;;;8.73;;
3259;SDS011;22469;48.150;14.004;2022-07-06T03:35:48;9.30;;;8.60;;
3259;SDS011;22469;48.150;14.004;2022-07-06T03:38:15;8.77;;;8.07;;
3259;SDS011;22469;48.150;14.004;2022-07-06T03:40:42;9.83;;;8.67;;
3259;SDS011;22469;48.150;14.004;2022-07-06T03:43:09;8.40;;;7.80;;
3259;SDS011;22469;48.150;14.004;2022-07-06T03:45:36;8.50;;;7.80;;
3259;SDS011;22469;48.150;14.004;2022-07-06T03:48:03;7.53;;;6.83;;
3259;SDS011;22469;48.150;14.004;2022-07-06T03:50:31;8.40;;;7.60;;
3259;SDS011;22469;48.150;14.004;2022-07-06T03:52:58;8.63;;;7.97;;
3259;SDS011;22469;48.150;14.004;2022-07-06T03:55:25;8.13;;;7.43;;
3259;SDS011;22469;48.150;14.004;2022-07-06T03:57:53;7.63;;;7.10;;
3259;SDS011;22469;48.150;14.004;2022-07-06T04:00:20;8.57;;;7.97;;
3259;SDS011;22469;48.150;14.004;2022-07-06T04:02:47;8.53;;;7.97;;
3259;SDS011;22469;48.150;14.004;2022-07-06T04:05:14;8.97;;;8.37;;
3259;SDS011;22469;48.150;14.004;2022-07-06T04:07:42;9.27;;;8.50;;
3259;SDS011;22469;48.150;14.004;2022-07-06T04:10:09;9.07;;;8.37;;
3259;SDS011;22469;48.150;14.004;2022-07-06T04:12:39;8.20;;;7.70;;
3259;SDS011;22469;48.150;14.004;2022-07-06T04:15:11;10.10;;;8.40;;
3259;SDS011;22469;48.150;14.004;2022-07-06T04:17:39;9.20;;;8.50;;
3259;SDS011;22469;48.150;14.004;2022-07-06T04:20:23;11.33;;;10.43;;
3259;SDS011;22469;48.150;14.004;2022-07-06T04:22:52;9.97;;;9.17;;
3259;SDS011;22469;48.150;14.004;2022-07-06T04:25:19;10.23;;;9.37;;
3259;SDS011;22469;48.150;14.004;2022-07-06T04:27:46;11.37;;;10.27;;
3259;SDS011;22469;48.150;14.004;2022-07-06T04:30:14;11.17;;;9.90;;
3259;SDS011;22469;48.150;14.004;2022-07-06T04:32:41;11.67;;;10.87;;
3259;SDS011;22469;48.150;14.004;2022-07-06T04:35:08;10.37;;;9.53;;
3259;SDS011;22469;48.150;14.004;2022-07-06T04:37:36;10.43;;;9.63;;
3259;SDS011;22469;48.150;14.004;2022-07-06T04:40:04;12.53;;;10.83;;
3259;SDS011;22469;48.150;14.004;2022-07-06T04:42:32;12.23;;;11.10;;
3259;SDS011;22469;48.150;14.004;2022-07-06T04:44:59;12.97;;;11.57;;
3259;SDS011;22469;48.150;14.004;2022-07-06T04:47:26;14.20;;;12.90;;
3259;SDS011;22469;48.150;14.004;2022-07-06T04:49:53;15.03;;;11.33;;
3259;SDS011;22469;48.150;14.004;2022-07-06T04:52:20;16.10;;;14.13;;
3259;SDS011;22469;48.150;14.004;2022-07-06T04:54:47;15.27;;;12.70;;
3259;SDS011;22469;48.150;14.004;2022-07-06T04:57:14;13.27;;;11.63;;
3259;SDS011;22469;48.150;14.004;2022-07-06T04:59:42;15.83;;;12.33;;
3259;SDS011;22469;48.150;14.004;2022-07-06T05:02:09;13.23;;;12.07;;
3259;SDS011;22469;48.150;14.004;2022-07-06T05:04:36;13.50;;;10.83;;
3259;SDS011;22469;48.150;14.004;2022-07-06T05:07:03;10.97;;;10.00;;
3259;SDS011;22469;48.150;14.004;2022-07-06T05:09:30;10.80;;;9.70;;
3259;SDS011;22469;48.150;14.004;2022-07-06T05:11:58;11.10;;;10.07;;
3259;SDS011;22469;48.150;14.004;2022-07-06T05:14:25;10.03;;;8.83;;
3259;SDS011;22469;48.150;14.004;2022-07-06T05:16:53;8.50;;;7.80;;
3259;SDS011;22469;48.150;14.004;2022-07-06T05:19:20;8.80;;;8.10;;
3259;SDS011;22469;48.150;14.004;2022-07-06T05:21:47;8.70;;;8.10;;
3259;SDS011;22469;48.150;14.004;2022-07-06T05:24:14;8.90;;;7.97;;
3259;SDS011;22469;48.150;14.004;2022-07-06T05:26:42;8.40;;;6.33;;
3259;SDS011;22469;48.150;14.004;2022-07-06T05:29:09;6.80;;;6.40;;
3259;SDS011;22469;48.150;14.004;2022-07-06T05:31:37;7.10;;;6.67;;
3259;SDS011;22469;48.150;14.004;2022-07-06T05:34:04;6.83;;;6.20;;
3259;SDS011;22469;48.150;14.004;2022-07-06T05:36:32;6.50;;;6.10;;
3259;SDS011;22469;48.150;14.004;2022-07-06T05:38:59;6.63;;;6.23;;
3259;SDS011;22469;48.150;14.004;2022-07-06T05:41:26;6.87;;;6.37;;
3259;SDS011;22469;48.150;14.004;2022-07-06T05:43:57;5.87;;;5.37;;
3259;SDS011;22469;48.150;14.004;2022-07-06T05:46:24;11.60;;;5.03;;
3259;SDS011;22469;48.150;14.004;2022-07-06T05:48:51;4.83;;;4.50;;
3259;SDS011;22469;48.150;14.004;2022-07-06T05:51:37;6.13;;;5.20;;
3259;SDS011;22469;48.150;14.004;2022-07-06T05:54:04;6.97;;;3.93;;
3259;SDS011;22469;48.150;14.004;2022-07-06T05:56:31;4.53;;;4.27;;
3259;SDS011;22469;48.150;14.004;2022-07-06T05:58:59;4.20;;;4.00;;
3259;SDS011;22469;48.150;14.004;2022-07-06T06:01:26;4.00;;;3.80;;
3259;SDS011;22469;48.150;14.004;2022-07-06T06:03:53;5.70;;;4.10;;
3259;SDS011;22469;48.150;14.004;2022-07-06T06:06:20;4.00;;;3.80;;
3259;SDS011;22469;48.150;14.004;2022-07-06T06:08:47;3.47;;;3.30;;
3259;SDS011;22469;48.150;14.004;2022-07-06T06:11:14;4.57;;;4.13;;
3259;SDS011;22469;48.150;14.004;2022-07-06T06:13:41;3.37;;;3.27;;
3259;SDS011;22469;48.150;14.004;2022-07-06T06:16:09;3.97;;;3.70;;
3259;SDS011;22469;48.150;14.004;2022-07-06T06:18:36;4.10;;;3.80;;
3259;SDS011;22469;48.150;14.004;2022-07-06T06:21:07;6.93;;;4.73;;
3259;SDS011;22469;48.150;14.004;2022-07-06T06:23:36;3.90;;;3.67;;
3259;SDS011;22469;48.150;14.004;2022-07-06T06:26:03;4.57;;;3.90;;
3259;SDS011;22469;48.150;14.004;2022-07-06T06:28:30;4.20;;;4.00;;
3259;SDS011;22469;48.150;14.004;2022-07-06T06:30:57;3.63;;;3.43;;
3259;SDS011;22469;48.150;14.004;2022-07-06T06:33:24;5.87;;;4.13;;
3259;SDS011;22469;48.150;14.004;2022-07-06T06:35:52;3.87;;;3.57;;
3259;SDS011;22469;48.150;14.004;2022-07-06T06:38:21;4.03;;;3.73;;
3259;SDS011;22469;48.150;14.004;2022-07-06T06:40:54;4.23;;;3.93;;
3259;SDS011;22469;48.150;14.004;2022-07-06T06:43:21;8.20;;;3.70;;
3259;SDS011;22469;48.150;14.004;2022-07-06T06:45:48;3.10;;;3.00;;
3259;SDS011;22469;48.150;14.004;2022-07-06T06:48:15;5.43;;;4.60;;
3259;SDS011;22469;48.150;14.004;2022-07-06T06:50:46;4.17;;;3.90;;
3259;SDS011;22469;48.150;14.004;2022-07-06T06:53:14;3.13;;;2.93;;
3259;SDS011;22469;48.150;14.004;2022-07-06T06:55:41;3.57;;;3.37;;
3259;SDS011;22469;48.150;14.004;2022-07-06T06:58:08;4.93;;;3.30;;
3259;SDS011;22469;48.150;14.004;2022-07-06T07:00:36;3.23;;;2.80;;
3259;SDS011;22469;48.150;14.004;2022-07-06T07:03:03;4.27;;;2.80;;
3259;SDS011;22469;48.150;14.004;2022-07-06T07:05:31;2.57;;;2.37;;
3259;SDS011;22469;48.150;14.004;2022-07-06T07:07:58;2.80;;;2.60;;
3259;SDS011;22469;48.150;14.004;2022-07-06T07:10:31;8.63;;;3.10;;
3259;SDS011;22469;48.150;14.004;2022-07-06T07:13:00;3.40;;;2.30;;
3259;SDS011;22469;48.150;14.004;2022-07-06T07:15:27;3.67;;;2.70;;
3259;SDS011;22469;48.150;14.004;2022-07-06T07:17:54;2.43;;;2.10;;
3259;SDS011;22469;48.150;14.004;2022-07-06T07:20:22;2.53;;;2.43;;
3259;SDS011;22469;48.150;14.004;2022-07-06T07:22:49;2.07;;;1.83;;
3259;SDS011;22469;48.150;14.004;2022-07-06T07:25:17;2.90;;;2.00;;
3259;SDS011;22469;48.150;14.004;2022-07-06T07:27:44;2.10;;;2.10;;
3259;SDS011;22469;48.150;14.004;2022-07-06T07:30:11;2.60;;;2.03;;
3259;SDS011;22469;48.150;14.004;2022-07-06T07:32:38;1.80;;;1.70;;
3259;SDS011;22469;48.150;14.004;2022-07-06T07:35:09;2.57;;;2.47;;
3259;SDS011;22469;48.150;14.004;2022-07-06T07:37:36;2.63;;;2.10;;
3259;SDS011;22469;48.150;14.004;2022-07-06T07:40:05;3.30;;;2.37;;
3259;SDS011;22469;48.150;14.004;2022-07-06T07:42:33;2.37;;;2.20;;
3259;SDS011;22469;48.150;14.004;2022-07-06T07:45:00;2.13;;;2.03;;
3259;SDS011;22469;48.150;14.004;2022-07-06T07:47:27;2.87;;;2.57;;
3259;SDS011;22469;48.150;14.004;2022-07-06T07:49:54;2.50;;;2.40;;
3259;SDS011;22469;48.150;14.004;2022-07-06T07:52:21;2.60;;;2.40;;
3259;SDS011;22469;48.150;14.004;2022-07-06T07:54:48;3.00;;;2.00;;
3259;SDS011;22469;48.150;14.004;2022-07-06T07:57:35;2.37;;;2.27;;
3259;SDS011;22469;48.150;14.004;2022-07-06T08:00:03;2.57;;;2.40;;
3259;SDS011;22469;48.150;14.004;2022-07-06T08:02:31;2.20;;;2.00;;
3259;SDS011;22469;48.150;14.004;2022-07-06T08:04:58;2.40;;;2.30;;
3259;SDS011;22469;48.150;14.004;2022-07-06T08:07:26;2.80;;;2.10;;
3259;SDS011;22469;48.150;14.004;2022-07-06T08:09:53;2.37;;;1.93;;
3259;SDS011;22469;48.150;14.004;2022-07-06T08:12:20;2.50;;;2.40;;
3259;SDS011;22469;48.150;14.004;2022-07-06T08:14:48;2.20;;;2.00;;
3259;SDS011;22469;48.150;14.004;2022-07-06T08:17:15;2.53;;;2.30;;
3259;SDS011;22469;48.150;14.004;2022-07-06T08:19:42;4.00;;;2.33;;
3259;SDS011;22469;48.150;14.004;2022-07-06T08:22:09;2.60;;;2.40;;
3259;SDS011;22469;48.150;14.004;2022-07-06T08:24:36;2.23;;;2.13;;
3259;SDS011;22469;48.150;14.004;2022-07-06T08:27:03;2.83;;;2.50;;
3259;SDS011;22469;48.150;14.004;2022-07-06T08:29:31;3.17;;;2.57;;
3259;SDS011;22469;48.150;14.004;2022-07-06T08:31:58;2.43;;;2.33;;
3259;SDS011;22469;48.150;14.004;2022-07-06T08:34:39;2.43;;;2.23;;
3259;SDS011;22469;48.150;14.004;2022-07-06T08:37:06;3.40;;;3.10;;
3259;SDS011;22469;48.150;14.004;2022-07-06T08:39:33;2.80;;;2.60;;
3259;SDS011;22469;48.150;14.004;2022-07-06T08:42:00;3.63;;;2.17;;
3259;SDS011;22469;48.150;14.004;2022-07-06T08:44:29;2.53;;;2.33;;
3259;SDS011;22469;48.150;14.004;2022-07-06T08:46:57;3.13;;;2.37;;
3259;SDS011;22469;48.150;14.004;2022-07-06T08:49:28;2.83;;;2.50;;
3259;SDS011;22469;48.150;14.004;2022-07-06T08:51:57;2.57;;;2.30;;
3259;SDS011;22469;48.150;14.004;2022-07-06T08:54:25;3.00;;;2.80;;
3259;SDS011;22469;48.150;14.004;2022-07-06T08:56:54;5.90;;;2.60;;
3259;SDS011;22469;48.150;14.004;2022-07-06T08:59:21;2.47;;;2.23;;
3259;SDS011;22469;48.150;14.004;2022-07-06T09:01:48;2.80;;;2.53;;
3259;SDS011;22469;48.150;14.004;2022-07-06T09:04:17;3.37;;;2.10;;
3259;SDS011;22469;48.150;14.004;2022-07-06T09:06:46;14.67;;;3.27;;
3259;SDS011;22469;48.150;14.004;2022-07-06T09:09:19;2.87;;;2.70;;
3259;SDS011;22469;48.150;14.004;2022-07-06T09:11:48;2.07;;;2.00;;
3259;SDS011;22469;48.150;14.004;2022-07-06T09:14:16;2.30;;;2.10;;
3259;SDS011;22469;48.150;14.004;2022-07-06T09:16:46;5.53;;;2.80;;
3259;SDS011;22469;48.150;14.004;2022-07-06T09:19:19;2.00;;;1.90;;
3259;SDS011;22469;48.150;14.004;2022-07-06T09:21:46;4.90;;;3.60;;
3259;SDS011;22469;48.150;14.004;2022-07-06T09:24:14;2.67;;;2.47;;
3259;SDS011;22469;48.150;14.004;2022-07-06T09:26:42;2.10;;;2.00;;
3259;SDS011;22469;48.150;14.004;2022-07-06T09:29:09;2.70;;;2.43;;
3259;SDS011;22469;48.150;14.004;2022-07-06T09:31:38;2.97;;;2.33;;
3259;SDS011;22469;48.150;14.004;2022-07-06T09:34:06;2.57;;;2.37;;
3259;SDS011;22469;48.150;14.004;2022-07-06T09:36:42;3.10;;;2.40;;
3259;SDS011;22469;48.150;14.004;2022-07-06T09:41:55;2.70;;;2.60;;
3259;SDS011;22469;48.150;14.004;2022-07-06T09:44:35;2.50;;;2.40;;
3259;SDS011;22469;48.150;14.004;2022-07-06T09:47:08;2.10;;;2.00;;
3259;SDS011;22469;48.150;14.004;2022-07-06T09:49:39;2.37;;;2.27;;
3259;SDS011;22469;48.150;14.004;2022-07-06T09:52:07;2.57;;;2.43;;
3259;SDS011;22469;48.150;14.004;2022-07-06T09:54:37;2.90;;;2.50;;
3259;SDS011;22469;48.150;14.004;2022-07-06T09:57:05;2.33;;;2.23;;
3259;SDS011;22469;48.150;14.004;2022-07-06T09:59:36;2.73;;;2.30;;
3259;SDS011;22469;48.150;14.004;2022-07-06T10:02:06;2.67;;;2.47;;
3259;SDS011;22469;48.150;14.004;2022-07-06T10:04:36;3.13;;;2.80;;
3259;SDS011;22469;48.150;14.004;2022-07-06T10:07:03;2.60;;;2.50;;
3259;SDS011;22469;48.150;14.004;2022-07-06T10:09:34;6.20;;;3.10;;
3259;SDS011;22469;48.150;14.004;2022-07-06T10:12:02;2.57;;;2.47;;
3259;SDS011;22469;48.150;14.004;2022-07-06T10:14:31;2.60;;;2.50;;
3259;SDS011;22469;48.150;14.004;2022-07-06T10:17:00;2.30;;;2.20;;
3259;SDS011;22469;48.150;14.004;2022-07-06T10:19:31;2.93;;;2.53;;
3259;SDS011;22469;48.150;14.004;2022-07-06T10:22:00;4.00;;;2.70;;
3259;SDS011;22469;48.150;14.004;2022-07-06T10:24:30;3.77;;;2.13;;
3259;SDS011;22469;48.150;14.004;2022-07-06T10:27:01;3.90;;;2.50;;
3259;SDS011;22469;48.150;14.004;2022-07-06T10:29:29;2.07;;;1.97;;
3259;SDS011;22469;48.150;14.004;2022-07-06T10:31:58;5.17;;;3.20;;
3259;SDS011;22469;48.150;14.004;2022-07-06T10:34:26;4.93;;;2.80;;
3259;SDS011;22469;48.150;14.004;2022-07-06T10:36:54;2.80;;;2.60;;
3259;SDS011;22469;48.150;14.004;2022-07-06T10:39:34;3.27;;;2.97;;
3259;SDS011;22469;48.150;14.004;2022-07-06T10:45:12;2.77;;;2.67;;
3259;SDS011;22469;48.150;14.004;2022-07-06T10:47:41;2.87;;;1.80;;
3259;SDS011;22469;48.150;14.004;2022-07-06T10:50:10;2.50;;;2.30;;
3259;SDS011;22469;48.150;14.004;2022-07-06T10:52:52;2.33;;;2.20;;
3259;SDS011;22469;48.150;14.004;2022-07-06T10:55:29;3.10;;;2.30;;
3259;SDS011;22469;48.150;14.004;2022-07-06T10:58:02;2.37;;;2.00;;
3259;SDS011;22469;48.150;14.004;2022-07-06T11:01:13;1.83;;;1.73;;
3259;SDS011;22469;48.150;14.004;2022-07-06T11:03:32;1.80;;;1.73;;
3259;SDS011;22469;48.150;14.004;2022-07-06T11:08:54;2.47;;;2.27;;
3259;SDS011;22469;48.150;14.004;2022-07-06T11:14:07;8.73;;;2.40;;
3259;SDS011;22469;48.150;14.004;2022-07-06T11:19:14;2.33;;;2.23;;
3259;SDS011;22469;48.150;14.004;2022-07-06T11:24:11;4.83;;;2.47;;
3259;SDS011;22469;48.150;14.004;2022-07-06T11:26:44;3.80;;;2.13;;
3259;SDS011;22469;48.150;14.004;2022-07-06T11:29:15;2.20;;;2.03;;
3259;SDS011;22469;48.150;14.004;2022-07-06T11:31:45;2.30;;;2.20;;
3259;SDS011;22469;48.150;14.004;2022-07-06T11:34:26;2.60;;;2.43;;
3259;SDS011;22469;48.150;14.004;2022-07-06T11:36:56;2.53;;;2.43;;
3259;SDS011;22469;48.150;14.004;2022-07-06T11:39:29;2.30;;;1.83;;
3259;SDS011;22469;48.150;14.004;2022-07-06T11:41:58;3.70;;;2.83;;
3259;SDS011;22469;48.150;14.004;2022-07-06T11:44:27;3.27;;;1.83;;
3259;SDS011;22469;48.150;14.004;2022-07-06T11:46:54;3.10;;;2.80;;
3259;SDS011;22469;48.150;14.004;2022-07-06T11:49:24;2.00;;;1.90;;
3259;SDS011;22469;48.150;14.004;2022-07-06T11:51:52;2.50;;;2.30;;
3259;SDS011;22469;48.150;14.004;2022-07-06T11:54:20;2.17;;;2.07;;
3259;SDS011;22469;48.150;14.004;2022-07-06T11:56:58;2.43;;;2.03;;
3259;SDS011;22469;48.150;14.004;2022-07-06T11:59:28;2.50;;;2.40;;
3259;SDS011;22469;48.150;14.004;2022-07-06T12:04:39;2.40;;;1.60;;
3259;SDS011;22469;48.150;14.004;2022-07-06T12:07:12;3.17;;;1.70;;
3259;SDS011;22469;48.150;14.004;2022-07-06T12:09:42;1.90;;;1.80;;
3259;SDS011;22469;48.150;14.004;2022-07-06T12:12:12;2.00;;;1.90;;
3259;SDS011;22469;48.150;14.004;2022-07-06T12:14:41;3.07;;;2.37;;
3259;SDS011;22469;48.150;14.004;2022-07-06T12:17:09;2.37;;;2.27;;
3259;SDS011;22469;48.150;14.004;2022-07-06T12:19:42;4.70;;;2.10;;
3259;SDS011;22469;48.150;14.004;2022-07-06T12:22:10;1.90;;;1.80;;
3259;SDS011;22469;48.150;14.004;2022-07-06T12:24:41;4.67;;;2.20;;
3259;SDS011;22469;48.150;14.004;2022-07-06T12:27:17;2.40;;;1.97;;
3259;SDS011;22469;48.150;14.004;2022-07-06T12:29:47;2.00;;;1.77;;
3259;SDS011;22469;48.150;14.004;2022-07-06T12:32:19;1.93;;;1.83;;
3259;SDS011;22469;48.150;14.004;2022-07-06T12:35:06;1.83;;;1.83;;
3259;SDS011;22469;48.150;14.004;2022-07-06T12:37:35;1.93;;;1.83;;
3259;SDS011;22469;48.150;14.004;2022-07-06T12:40:13;2.77;;;2.20;;
3259;SDS011;22469;48.150;14.004;2022-07-06T12:42:47;2.20;;;2.10;;
3259;SDS011;22469;48.150;14.004;2022-07-06T12:45:15;2.40;;;2.20;;
3259;SDS011;22469;48.150;14.004;2022-07-06T12:47:56;5.57;;;2.37;;
3259;SDS011;22469;48.150;14.004;2022-07-06T12:50:35;2.10;;;2.00;;
3259;SDS011;22469;48.150;14.004;2022-07-06T12:53:05;1.77;;;1.50;;
3259;SDS011;22469;48.150;14.004;2022-07-06T12:56:13;3.07;;;2.87;;
3259;SDS011;22469;48.150;14.004;2022-07-06T12:59:01;1.80;;;1.63;;
3259;SDS011;22469;48.150;14.004;2022-07-06T13:01:28;2.13;;;1.93;;
3259;SDS011;22469;48.150;14.004;2022-07-06T13:03:56;1.70;;;1.60;;
3259;SDS011;22469;48.150;14.004;2022-07-06T13:06:42;2.03;;;1.80;;
3259;SDS011;22469;48.150;14.004;2022-07-06T13:09:09;2.00;;;1.80;;
3259;SDS011;22469;48.150;14.004;2022-07-06T13:11:36;1.93;;;1.83;;
3259;SDS011;22469;48.150;14.004;2022-07-06T13:14:03;1.80;;;1.70;;
3259;SDS011;22469;48.150;14.004;2022-07-06T13:16:30;2.50;;;2.40;;
3259;SDS011;22469;48.150;14.004;2022-07-06T13:19:01;2.30;;;2.20;;
3259;SDS011;22469;48.150;14.004;2022-07-06T13:21:29;4.73;;;2.33;;
3259;SDS011;22469;48.150;14.004;2022-07-06T13:23:56;3.40;;;2.00;;
3259;SDS011;22469;48.150;14.004;2022-07-06T13:26:23;2.43;;;2.23;;
3259;SDS011;22469;48.150;14.004;2022-07-06T13:28:50;1.97;;;1.87;;
3259;SDS011;22469;48.150;14.004;2022-07-06T13:31:17;1.97;;;1.87;;
3259;SDS011;22469;48.150;14.004;2022-07-06T13:33:45;2.50;;;2.10;;
3259;SDS011;22469;48.150;14.004;2022-07-06T13:36:12;2.43;;;2.20;;
3259;SDS011;22469;48.150;14.004;2022-07-06T13:38:39;2.07;;;1.97;;
3259;SDS011;22469;48.150;14.004;2022-07-06T13:41:06;2.40;;;1.93;;
3259;SDS011;22469;48.150;14.004;2022-07-06T13:43:33;2.50;;;2.30;;
3259;SDS011;22469;48.150;14.004;2022-07-06T13:46:03;2.30;;;2.20;;
3259;SDS011;22469;48.150;14.004;2022-07-06T13:48:32;4.40;;;2.40;;
3259;SDS011;22469;48.150;14.004;2022-07-06T13:51:01;2.33;;;2.23;;
3259;SDS011;22469;48.150;14.004;2022-07-06T13:53:28;2.20;;;2.10;;
3259;SDS011;22469;48.150;14.004;2022-07-06T13:55:58;2.20;;;2.00;;
3259;SDS011;22469;48.150;14.004;2022-07-06T13:58:25;4.70;;;2.40;;
3259;SDS011;22469;48.150;14.004;2022-07-06T14:00:53;2.80;;;2.00;;
3259;SDS011;22469;48.150;14.004;2022-07-06T14:03:21;2.47;;;2.27;;
3259;SDS011;22469;48.150;14.004;2022-07-06T14:05:58;2.30;;;1.97;;
3259;SDS011;22469;48.150;14.004;2022-07-06T14:08:28;3.83;;;2.17;;
3259;SDS011;22469;48.150;14.004;2022-07-06T14:10:55;2.20;;;2.10;;
3259;SDS011;22469;48.150;14.004;2022-07-06T14:13:23;1.90;;;1.80;;
3259;SDS011;22469;48.150;14.004;2022-07-06T14:15:51;2.50;;;2.30;;
3259;SDS011;22469;48.150;14.004;2022-07-06T14:18:19;2.30;;;2.20;;
3259;SDS011;22469;48.150;14.004;2022-07-06T14:20:48;2.07;;;1.97;;
3259;SDS011;22469;48.150;14.004;2022-07-06T14:23:16;2.70;;;2.50;;
3259;SDS011;22469;48.150;14.004;2022-07-06T14:25:45;2.60;;;1.93;;
3259;SDS011;22469;48.150;14.004;2022-07-06T14:28:13;1.93;;;1.87;;
3259;SDS011;22469;48.150;14.004;2022-07-06T14:30:41;2.07;;;1.90;;
3259;SDS011;22469;48.150;14.004;2022-07-06T14:33:10;3.33;;;1.90;;
3259;SDS011;22469;48.150;14.004;2022-07-06T14:35:43;1.83;;;1.73;;
3259;SDS011;22469;48.150;14.004;2022-07-06T14:38:19;2.43;;;2.33;;
3259;SDS011;22469;48.150;14.004;2022-07-06T14:40:47;1.83;;;1.73;;
3259;SDS011;22469;48.150;14.004;2022-07-06T14:43:16;2.00;;;2.00;;
3259;SDS011;22469;48.150;14.004;2022-07-06T14:45:46;2.03;;;1.93;;
3259;SDS011;22469;48.150;14.004;2022-07-06T14:48:14;2.17;;;1.97;;
3259;SDS011;22469;48.150;14.004;2022-07-06T14:50:41;1.87;;;1.70;;
3259;SDS011;22469;48.150;14.004;2022-07-06T14:53:08;1.60;;;1.50;;
3259;SDS011;22469;48.150;14.004;2022-07-06T14:55:35;2.27;;;2.10;;
3259;SDS011;22469;48.150;14.004;2022-07-06T14:58:03;1.80;;;1.70;;
3259;SDS011;22469;48.150;14.004;2022-07-06T15:00:30;1.90;;;1.80;;
3259;SDS011;22469;48.150;14.004;2022-07-06T15:02:58;2.10;;;2.00;;
3259;SDS011;22469;48.150;14.004;2022-07-06T15:05:25;2.00;;;1.90;;
3259;SDS011;22469;48.150;14.004;2022-07-06T15:07:52;2.30;;;2.20;;
3259;SDS011;22469;48.150;14.004;2022-07-06T15:10:21;2.00;;;1.90;;
3259;SDS011;22469;48.150;14.004;2022-07-06T15:12:48;2.33;;;2.23;;
3259;SDS011;22469;48.150;14.004;2022-07-06T15:15:15;2.10;;;2.00;;